Aérodrome :
LOGIN :

S'inscrire | Disclaimer

   EN    FR    IT 

 










Légende :    VFR   VFR Marginal   IFR   IFR Intensif   IFR Très Intensif
Visi : 
Plafond : 
>= 8 km
>= 3000ft
5 à 8 km
1000 à 3000 ft
1500m à 5 km
500 à 1000 ft
800 à 1500m
200 à 500 ft
< 800m
< 200 ft
Symboles :   Orages  Brouillard  Fortes neiges  Fortes précipitations  Vent > 20 kt
SIGMETs :   Divers  Orages  Givrage  Turbulence  Onde Orograph.  Cendres Volcan.






- Altitude de l'aérodrome : 184 ft
- Code IATA : BRU


EBBR - Bruxelles

DERNIER METAR :
  • 112350Z 22009KT 9999 BKN010 05/03 Q1003 NOSIG

METARs EXPIRÉS :
  • 112320Z 22009KT 9999 SCT010 BKN024 05/04 Q1003 NOSIG
  • 112250Z 22011KT 9999 -SHRA FEW010 BKN037 05/03 Q1003 NOSIG
  • 112220Z 21011KT 9999 BKN013 06/03 Q1003 TEMPO 4000 SHRA
  • 112150Z 21011KT 9999 FEW040 05/03 Q1003 NOSIG
  • 112120Z 20008KT 9999 FEW040 05/03 Q1004 NOSIG
  • 112050Z 20008KT CAVOK 05/03 Q1004 NOSIG

TAF TAF EBBR
Valide du 12 à 00h jusqu'au 13 à 06h UTC


112300Z 1200/1306 22010KT 9999 SCT020 SCT035
TEMPO 1200/1202 22015G25KT 4500 SHRA BKN008 SCT015CB
PROB30
TEMPO 1202/1211 SCT008 BKN012
BECMG 1217/1219 17015G25KT RA BKN014
PROB40
TEMPO 1221/1302 4000 RADZ BKN009
BECMG 1302/1304 24013KT
PROB30
TEMPO 1304/1306 25015G25KT 4500 RA SHRA BKN014CB



MET'MAP, la Météo Aéronautique d'un coup d'oeil ! - Copyright ORBIFLY Décembre 2007 - Disclaimer

ORBIFLY MET'MAP TEAM :

Programmation & Développement : Alexandra Zaïnal
Sur une idée originale de : Baudouin d'Aumeries
Assistance à la programmation : Marc-Olivier Méhu
Soutien technique & logistique : Manuel Goepfert

Contact : metmap@orbifly.com




SOURCES & CREDITS :

   NOAA